createdAt,value
2019-01-30T00:03:37.367Z,20.92
2019-01-30T00:09:39.705Z,18.27
2019-01-30T00:15:41.826Z,18.48
2019-01-30T00:21:44.141Z,15.15
2019-01-30T00:27:46.456Z,16.32
2019-01-30T00:33:48.771Z,15.25
2019-01-30T00:39:51.240Z,13.78
2019-01-30T00:45:53.411Z,14.23
2019-01-30T00:51:55.797Z,12.98
2019-01-30T00:57:59.229Z,11.43
2019-01-30T01:04:02.999Z,13.70
2019-01-30T01:10:07.307Z,12.47
2019-01-30T01:16:09.563Z,13.55
2019-01-30T01:22:11.960Z,14.07
2019-01-30T01:28:15.310Z,11.45
2019-01-30T01:34:17.687Z,11.00
2019-01-30T01:40:19.891Z,10.88
2019-01-30T01:46:22.306Z,13.30
2019-01-30T01:52:24.845Z,10.70
2019-01-30T01:58:27.128Z,13.28
2019-01-30T02:04:29.831Z,14.43
2019-01-30T02:10:32.232Z,11.83
2019-01-30T02:16:35.748Z,11.05
2019-01-30T02:22:38.228Z,11.85
2019-01-30T02:28:40.666Z,12.35
2019-01-30T02:34:43.152Z,10.28
2019-01-30T02:40:46.511Z,9.00
2019-01-30T02:46:49.570Z,9.88
2019-01-30T02:52:52.826Z,10.95
2019-01-30T02:58:56.332Z,9.93
2019-01-30T03:04:58.811Z,10.85
2019-01-30T03:11:01.231Z,10.63
2019-01-30T03:17:03.589Z,11.57
2019-01-30T03:23:05.907Z,11.05
2019-01-30T03:29:09.252Z,9.73
2019-01-30T03:35:11.527Z,10.85
2019-01-30T03:41:13.699Z,11.22
2019-01-30T03:47:15.979Z,11.90
2019-01-30T03:53:18.294Z,9.98
2019-01-30T03:59:20.551Z,10.53
2019-01-30T04:05:23.767Z,12.75
2019-01-30T04:11:26.368Z,11.12
2019-01-30T04:17:28.579Z,10.80
2019-01-30T04:23:30.956Z,11.85
2019-01-30T04:29:33.321Z,11.22
2019-01-30T04:35:35.435Z,11.25
2019-01-30T04:41:37.903Z,11.30
2019-01-30T04:47:40.892Z,11.65
2019-01-30T04:53:43.243Z,11.33
2019-01-30T04:59:45.414Z,11.03
2019-01-30T05:05:47.690Z,12.30
2019-01-30T05:11:50.923Z,13.38
2019-01-30T05:17:54.179Z,12.05
2019-01-30T05:23:57.706Z,11.45
2019-01-30T05:29:59.849Z,10.72
2019-01-30T05:36:01.995Z,10.80
2019-01-30T05:42:04.373Z,10.63
2019-01-30T05:48:13.690Z,10.78
2019-01-30T05:54:16.119Z,11.00
2019-01-30T06:00:31.677Z,8.98
2019-01-30T06:06:33.912Z,7.65
2019-01-30T06:12:36.279Z,9.65
2019-01-30T06:18:41.957Z,11.22
2019-01-30T06:24:45.031Z,12.05
2019-01-30T06:30:47.276Z,12.60
2019-01-30T06:36:49.549Z,10.70
2019-01-30T06:42:52.850Z,13.03
2019-01-30T06:48:56.336Z,11.95
2019-01-30T06:54:58.795Z,13.53
2019-01-30T07:01:01.099Z,11.22
2019-01-30T07:07:04.390Z,9.88
2019-01-30T07:13:06.704Z,16.42
2019-01-30T07:19:08.935Z,11.70
2019-01-30T07:25:12.385Z,14.40
2019-01-30T07:31:14.932Z,13.88
2019-01-30T07:37:17.097Z,12.20
2019-01-30T07:43:19.567Z,13.25
2019-01-30T07:49:22.063Z,15.78
2019-01-30T07:55:24.489Z,12.07
2019-01-30T08:01:28.096Z,12.35
2019-01-30T08:07:30.628Z,12.35
2019-01-30T08:13:33.189Z,14.23
2019-01-30T08:19:35.344Z,15.35
2019-01-30T08:25:38.523Z,14.38
2019-01-30T08:31:43.023Z,14.60
2019-01-30T08:37:45.981Z,11.88
2019-01-30T08:43:48.393Z,11.68
2019-01-30T08:49:51.535Z,11.97
2019-01-30T08:55:54.143Z,13.88
2019-01-30T09:01:56.588Z,13.48
2019-01-30T09:07:58.795Z,11.43
2019-01-30T09:14:01.145Z,13.40
2019-01-30T09:20:06.015Z,18.35
2019-01-30T09:26:08.547Z,15.78
2019-01-30T09:32:11.005Z,15.60
2019-01-30T09:38:14.358Z,13.78
2019-01-30T09:44:16.657Z,15.38
2019-01-30T09:50:19.105Z,17.87
2019-01-30T09:56:21.738Z,15.40
2019-01-30T10:02:25.779Z,13.95
2019-01-30T10:08:28.047Z,17.62
2019-01-30T10:14:30.695Z,17.17
2019-01-30T10:20:33.238Z,18.27
2019-01-30T10:26:35.703Z,17.70
2019-01-30T10:32:38.541Z,18.60
2019-01-30T10:38:40.831Z,15.13
2019-01-30T10:44:43.340Z,18.27
2019-01-30T10:50:45.740Z,19.67
2019-01-30T10:56:49.979Z,20.77
2019-01-30T11:02:52.171Z,19.30
2019-01-30T11:08:54.503Z,20.00
2019-01-30T11:14:58.044Z,15.72
2019-01-30T11:21:00.506Z,17.60
2019-01-30T11:27:02.777Z,18.32
2019-01-30T11:33:04.959Z,14.85
2019-01-30T11:39:07.230Z,18.73
2019-01-30T11:45:16.018Z,15.05
2019-01-30T11:51:18.444Z,18.10
2019-01-30T11:57:20.963Z,15.68
2019-01-30T12:03:23.340Z,18.35
2019-01-30T12:09:26.057Z,15.15
2019-01-30T12:15:28.500Z,14.00
2019-01-30T12:21:30.879Z,14.80
2019-01-30T12:27:33.699Z,12.73
2019-01-30T12:33:37.546Z,12.25
2019-01-30T12:39:39.739Z,12.53
2019-01-30T12:45:44.619Z,10.40
2019-01-30T12:51:48.710Z,11.00
2019-01-30T12:57:51.312Z,11.22
2019-01-30T13:03:53.642Z,10.68
2019-01-30T13:09:56.208Z,11.88
2019-01-30T13:15:58.702Z,11.03
2019-01-30T13:22:02.651Z,9.98
2019-01-30T13:28:05.463Z,10.90
2019-01-30T13:34:07.705Z,11.88
2019-01-30T13:40:13.565Z,10.80
2019-01-30T13:46:18.008Z,11.68
2019-01-30T13:52:20.573Z,9.78
2019-01-30T13:58:23.089Z,9.88
2019-01-30T14:04:25.916Z,14.47
2019-01-30T14:10:28.468Z,13.60
2019-01-30T14:16:30.944Z,12.07
2019-01-30T14:22:33.230Z,15.70
2019-01-30T14:28:35.600Z,11.78
2019-01-30T14:34:38.241Z,12.13
2019-01-30T14:40:40.678Z,12.13
2019-01-30T14:46:43.206Z,13.15
2019-01-30T14:52:46.903Z,11.38
2019-01-30T14:58:49.743Z,13.43
2019-01-30T15:04:52.243Z,15.43
2019-01-30T15:10:54.669Z,13.25
2019-01-30T15:16:56.958Z,14.85
2019-01-30T15:22:59.948Z,15.50
2019-01-30T15:29:02.203Z,12.80
2019-01-30T15:35:05.703Z,15.88
2019-01-30T15:41:08.109Z,14.55
2019-01-30T15:47:12.407Z,14.60
2019-01-30T15:53:18.284Z,15.13
2019-01-30T15:59:20.876Z,17.92
2019-01-30T16:05:23.474Z,21.57
2019-01-30T16:11:25.854Z,22.07
2019-01-30T16:17:28.216Z,24.55
2019-01-30T16:23:31.580Z,25.05
2019-01-30T16:29:34.964Z,23.22
2019-01-30T16:35:37.187Z,23.52
2019-01-30T16:41:39.544Z,24.05
2019-01-30T16:47:43.977Z,26.00
2019-01-30T16:53:46.225Z,23.50
2019-01-30T16:59:48.457Z,31.15
2019-01-30T17:05:51.888Z,45.83
2019-01-30T17:11:55.188Z,35.78
2019-01-30T17:17:57.469Z,31.62
2019-01-30T17:24:00.967Z,29.32
2019-01-30T17:30:08.152Z,24.60
2019-01-30T17:36:18.118Z,35.40
2019-01-30T17:42:15.000Z,43.52
2019-01-30T17:48:20.094Z,79.58
2019-01-30T17:54:22.205Z,67.42
2019-01-30T18:00:31.611Z,60.00
2019-01-30T18:06:44.810Z,54.90
2019-01-30T18:12:47.028Z,65.37
2019-01-30T18:18:49.228Z,57.48
2019-01-30T18:24:51.370Z,46.48
2019-01-30T18:30:53.472Z,47.33
2019-01-30T18:36:55.663Z,42.93
2019-01-30T18:42:57.817Z,37.75
2019-01-30T18:49:01.715Z,29.67
2019-01-30T18:55:04.485Z,35.38
2019-01-30T19:01:06.868Z,34.33
2019-01-30T19:07:09.156Z,34.95
2019-01-30T19:13:11.391Z,31.07
2019-01-30T19:19:13.590Z,35.00
2019-01-30T19:25:17.556Z,28.52
2019-01-30T19:31:21.848Z,30.60
2019-01-30T19:37:25.207Z,28.80
2019-01-30T19:43:27.327Z,25.85
2019-01-30T19:49:30.676Z,26.17
2019-01-30T19:55:32.830Z,27.98
2019-01-30T20:01:36.168Z,32.28
2019-01-30T20:07:38.935Z,28.60
2019-01-30T20:13:41.548Z,25.25
2019-01-30T20:19:45.339Z,28.02
2019-01-30T20:25:47.807Z,31.20
2019-01-30T20:31:50.091Z,26.45
2019-01-30T20:37:52.384Z,27.67
2019-01-30T20:43:54.752Z,29.15
2019-01-30T20:49:58.080Z,29.05
2019-01-30T20:56:00.715Z,27.32
2019-01-30T21:02:02.915Z,26.70
2019-01-30T21:08:05.949Z,29.27
2019-01-30T21:14:08.225Z,28.55
2019-01-30T21:20:11.313Z,24.45
2019-01-30T21:26:13.472Z,27.05
2019-01-30T21:32:15.655Z,28.77
2019-01-30T21:38:20.169Z,22.62
2019-01-30T21:44:22.383Z,27.60
2019-01-30T21:50:24.761Z,26.45
2019-01-30T21:56:27.903Z,29.05
2019-01-30T22:02:30.399Z,28.00
2019-01-30T22:08:35.770Z,27.10
2019-01-30T22:14:38.162Z,25.88
2019-01-30T22:20:40.438Z,29.90
2019-01-30T22:26:43.424Z,29.87
2019-01-30T22:32:46.905Z,30.97
2019-01-30T22:38:50.231Z,33.00
2019-01-30T22:44:52.523Z,28.90
2019-01-30T22:50:54.970Z,31.82
2019-01-30T22:56:57.083Z,32.42
2019-01-30T23:03:03.331Z,33.05
2019-01-30T23:09:56.366Z,35.00
2019-01-30T23:16:32.011Z,35.38
2019-01-30T23:23:31.738Z,36.75
2019-01-30T23:30:33.817Z,35.80
2019-01-30T23:37:33.026Z,35.73
2019-01-30T23:44:16.842Z,33.67
2019-01-30T23:50:37.835Z,38.30
2019-01-30T23:57:12.647Z,27.75
